createdAt,value
2023-03-21T00:01:07.502Z,9.30
2023-03-21T00:03:36.932Z,9.18
2023-03-21T00:06:16.377Z,8.35
2023-03-21T00:08:48.251Z,8.80
2023-03-21T00:11:29.416Z,8.03
2023-03-21T00:14:01.552Z,8.00
2023-03-21T00:16:40.614Z,8.88
2023-03-21T00:19:10.041Z,8.20
2023-03-21T00:25:26.228Z,10.25
2023-03-21T00:32:15.226Z,12.58
2023-03-21T00:34:59.707Z,14.43
2023-03-21T00:37:22.604Z,15.13
2023-03-21T00:40:01.526Z,14.83
2023-03-21T00:42:35.012Z,14.55
2023-03-21T00:45:05.039Z,16.15
2023-03-21T00:47:39.513Z,16.25
2023-03-21T00:50:09.591Z,17.20
2023-03-21T00:52:50.102Z,16.45
2023-03-21T00:55:26.684Z,16.53
2023-03-21T00:58:02.100Z,17.07
2023-03-21T01:00:38.108Z,16.93
2023-03-21T01:06:08.017Z,17.90
2023-03-21T01:08:55.515Z,17.12
2023-03-21T01:11:25.773Z,17.27
2023-03-21T01:14:14.625Z,16.53
2023-03-21T01:16:32.404Z,17.60
2023-03-21T01:19:06.961Z,17.73
2023-03-21T01:25:21.547Z,17.37
2023-03-21T01:27:39.383Z,17.23
2023-03-21T01:30:19.095Z,16.93
2023-03-21T01:32:43.658Z,17.43
2023-03-21T01:35:16.897Z,16.50
2023-03-21T01:37:49.872Z,17.20
2023-03-21T01:40:21.759Z,17.03
2023-03-21T01:42:51.787Z,18.53
2023-03-21T01:45:56.949Z,17.60
2023-03-21T01:48:27.204Z,16.73
2023-03-21T01:50:56.715Z,16.50
2023-03-21T01:53:32.682Z,16.55
2023-03-21T01:56:04.518Z,17.33
2023-03-21T01:58:34.168Z,16.65
2023-03-21T02:01:05.090Z,16.60
2023-03-21T02:03:43.158Z,16.70
2023-03-21T02:06:15.009Z,16.07
2023-03-21T02:08:49.487Z,15.77
2023-03-21T02:11:28.972Z,15.50
2023-03-21T02:14:06.407Z,15.38
2023-03-21T02:16:31.357Z,16.17
2023-03-21T02:19:33.040Z,16.73
2023-03-21T02:22:10.312Z,16.03
2023-03-21T02:25:04.276Z,15.67
2023-03-21T02:27:34.017Z,16.33
2023-03-21T02:30:30.443Z,16.37
2023-03-21T02:33:06.057Z,16.10
2023-03-21T02:35:52.397Z,15.30
2023-03-21T02:38:40.513Z,16.15
2023-03-21T02:41:27.449Z,15.20
2023-03-21T02:44:19.906Z,15.80
2023-03-21T02:47:07.233Z,16.00
2023-03-21T02:49:48.906Z,16.60
2023-03-21T02:52:38.016Z,15.07
2023-03-21T02:55:02.116Z,16.33
2023-03-21T02:57:41.660Z,16.67
2023-03-21T03:00:15.501Z,15.73
2023-03-21T03:02:37.718Z,14.90
2023-03-21T03:05:21.506Z,14.70
2023-03-21T03:08:11.902Z,14.87
2023-03-21T03:11:02.723Z,14.73
2023-03-21T03:14:15.857Z,14.80
2023-03-21T03:16:58.088Z,13.30
2023-03-21T03:19:44.639Z,14.10
2023-03-21T03:22:33.876Z,13.63
2023-03-21T03:25:23.096Z,13.63
2023-03-21T03:27:55.427Z,13.23
2023-03-21T03:30:39.259Z,13.00
2023-03-21T03:36:41.534Z,12.47
2023-03-21T03:39:16.434Z,12.93
2023-03-21T03:42:27.066Z,13.77
2023-03-21T03:44:48.004Z,13.00
2023-03-21T03:47:36.233Z,14.03
2023-03-21T03:50:17.701Z,13.07
2023-03-21T03:53:16.392Z,12.53
2023-03-21T03:55:41.996Z,13.57
2023-03-21T03:58:22.869Z,12.60
2023-03-21T04:00:48.079Z,12.30
2023-03-21T04:03:21.107Z,13.10
2023-03-21T04:12:25.024Z,12.83
2023-03-21T04:14:56.963Z,12.73
2023-03-21T04:17:24.252Z,13.60
2023-03-21T04:20:05.435Z,13.73
2023-03-21T04:22:29.594Z,13.40
2023-03-21T04:25:00.499Z,13.70
2023-03-21T04:27:29.534Z,14.10
2023-03-21T04:29:59.956Z,13.20
2023-03-21T04:32:29.234Z,13.67
2023-03-21T04:34:58.184Z,13.90
2023-03-21T04:37:28.390Z,13.30
2023-03-21T04:40:07.906Z,13.80
2023-03-21T04:42:37.287Z,14.60
2023-03-21T04:45:07.214Z,15.47
2023-03-21T04:47:36.089Z,14.30
2023-03-21T04:50:11.160Z,13.63
2023-03-21T04:52:44.461Z,13.33
2023-03-21T04:55:25.481Z,13.93
2023-03-21T04:57:54.348Z,12.53
2023-03-21T05:00:25.516Z,13.83
2023-03-21T05:02:58.686Z,13.13
2023-03-21T05:05:29.817Z,13.77
2023-03-21T05:08:00.784Z,12.57
2023-03-21T05:10:29.463Z,15.37
2023-03-21T05:12:58.150Z,13.83
2023-03-21T05:15:26.836Z,13.23
2023-03-21T05:17:55.607Z,13.30
2023-03-21T05:20:26.324Z,13.83
2023-03-21T05:22:54.960Z,13.80
2023-03-21T05:25:25.452Z,14.17
2023-03-21T05:27:54.316Z,14.43
2023-03-21T05:30:23.070Z,13.27
2023-03-21T05:32:52.003Z,14.70
2023-03-21T05:35:20.966Z,12.60
2023-03-21T05:37:49.650Z,12.63
2023-03-21T05:40:20.485Z,14.30
2023-03-21T05:42:50.755Z,13.60
2023-03-21T05:45:19.632Z,13.30
2023-03-21T05:47:51.740Z,12.50
2023-03-21T05:50:20.798Z,13.30
2023-03-21T05:52:49.707Z,12.77
2023-03-21T05:55:25.389Z,12.37
2023-03-21T05:57:57.530Z,12.37
2023-03-21T06:00:30.636Z,12.18
2023-03-21T06:03:00.019Z,12.15
2023-03-21T06:05:34.084Z,11.90
2023-03-21T06:08:03.214Z,11.85
2023-03-21T06:10:31.968Z,12.95
2023-03-21T06:13:00.770Z,13.10
2023-03-21T06:15:29.660Z,13.48
2023-03-21T06:17:58.365Z,13.60
2023-03-21T06:20:27.192Z,12.82
2023-03-21T06:22:55.843Z,13.15
2023-03-21T06:25:24.594Z,12.47
2023-03-21T06:27:55.132Z,13.85
2023-03-21T06:30:25.417Z,11.65
2023-03-21T06:32:55.102Z,13.43
2023-03-21T06:35:25.378Z,11.95
2023-03-21T06:44:33.681Z,14.73
2023-03-21T06:47:06.035Z,17.87
2023-03-21T06:49:34.756Z,18.02
2023-03-21T06:52:03.796Z,15.38
2023-03-21T06:54:37.253Z,13.80
2023-03-21T06:57:06.024Z,14.98
2023-03-21T06:59:35.158Z,17.67
2023-03-21T07:02:07.169Z,21.60
2023-03-21T07:07:51.674Z,31.37
2023-03-21T07:13:51.128Z,26.75
2023-03-21T07:16:21.872Z,29.52
2023-03-21T07:18:52.006Z,26.10
2023-03-21T07:21:20.663Z,24.43
2023-03-21T07:23:50.910Z,23.18
2023-03-21T07:26:19.863Z,21.80
2023-03-21T07:28:48.711Z,19.17
2023-03-21T07:31:19.678Z,20.60
2023-03-21T07:33:48.410Z,21.17
2023-03-21T07:36:18.768Z,18.67
2023-03-21T07:38:48.245Z,20.92
2023-03-21T07:41:18.658Z,18.60
2023-03-21T07:43:50.282Z,17.02
2023-03-21T07:46:20.825Z,16.93
2023-03-21T07:48:49.506Z,16.07
2023-03-21T07:51:18.229Z,16.52
2023-03-21T07:53:49.919Z,14.78
2023-03-21T07:56:22.048Z,14.23
2023-03-21T07:58:53.632Z,14.53
2023-03-21T08:01:22.324Z,14.25
2023-03-21T08:03:58.423Z,13.68
2023-03-21T08:06:29.260Z,14.30
2023-03-21T08:08:57.944Z,14.63
2023-03-21T08:11:27.610Z,12.07
2023-03-21T08:13:56.451Z,13.13
2023-03-21T08:16:27.307Z,13.08
2023-03-21T08:18:55.973Z,13.48
2023-03-21T08:21:24.975Z,14.53
2023-03-21T08:23:55.128Z,12.78
2023-03-21T08:26:25.530Z,11.88
2023-03-21T08:28:54.405Z,13.32
2023-03-21T08:31:23.463Z,13.93
2023-03-21T08:33:53.917Z,13.15
2023-03-21T08:36:24.415Z,13.83
2023-03-21T08:38:54.849Z,13.15
2023-03-21T08:44:53.594Z,12.37
2023-03-21T08:47:22.249Z,13.58
2023-03-21T08:49:50.838Z,14.07
2023-03-21T08:52:19.560Z,13.30
2023-03-21T08:54:50.803Z,14.03
2023-03-21T08:57:19.074Z,12.82
2023-03-21T08:59:47.834Z,12.53
2023-03-21T09:02:18.262Z,14.40
2023-03-21T09:04:47.770Z,12.85
2023-03-21T09:07:20.417Z,13.32
2023-03-21T09:10:08.233Z,12.10
2023-03-21T09:12:22.707Z,11.50
2023-03-21T09:14:52.994Z,11.45
2023-03-21T09:17:21.737Z,11.80
2023-03-21T09:19:50.947Z,12.90
2023-03-21T09:22:21.460Z,12.10
2023-03-21T09:24:50.907Z,14.07
2023-03-21T09:27:21.116Z,13.05
2023-03-21T09:29:52.763Z,12.20
2023-03-21T09:32:21.672Z,12.10
2023-03-21T09:34:51.137Z,12.10
2023-03-21T09:37:23.814Z,12.37
2023-03-21T09:43:42.669Z,11.55
2023-03-21T09:46:26.584Z,11.38
2023-03-21T09:49:05.883Z,11.53
2023-03-21T09:51:38.160Z,12.28
2023-03-21T09:54:15.431Z,11.55
2023-03-21T09:56:46.105Z,11.22
2023-03-21T10:02:47.348Z,12.90
2023-03-21T10:05:22.213Z,10.35
2023-03-21T10:08:11.679Z,10.90
2023-03-21T10:10:43.541Z,11.65
2023-03-21T10:13:24.029Z,11.38
2023-03-21T10:15:54.498Z,11.93
2023-03-21T10:18:29.287Z,11.10
2023-03-21T10:21:01.441Z,10.88
2023-03-21T10:23:31.480Z,12.35
2023-03-21T10:26:03.164Z,13.10
2023-03-21T10:28:52.543Z,13.93
2023-03-21T10:31:14.297Z,34.53
2023-03-21T10:33:46.157Z,14.33
2023-03-21T10:36:20.571Z,13.20
2023-03-21T10:38:52.235Z,13.03
2023-03-21T10:41:24.199Z,12.82
2023-03-21T10:44:14.055Z,14.58
2023-03-21T10:46:56.295Z,16.67
2023-03-21T10:49:26.869Z,14.70
2023-03-21T10:51:58.894Z,13.83
2023-03-21T10:54:33.292Z,10.58
2023-03-21T10:57:12.769Z,10.75
2023-03-21T10:59:50.165Z,13.95
2023-03-21T11:02:38.428Z,12.28
2023-03-21T11:05:11.372Z,11.78
2023-03-21T11:07:40.074Z,11.43
2023-03-21T11:10:28.140Z,43.50
2023-03-21T11:12:50.046Z,10.93
2023-03-21T11:15:30.998Z,8.28
2023-03-21T11:18:17.847Z,67.15
2023-03-21T11:20:52.344Z,7.42
2023-03-21T11:23:21.588Z,8.83
2023-03-21T11:25:54.641Z,9.40
2023-03-21T11:28:27.971Z,7.12
2023-03-21T11:30:59.367Z,8.78
2023-03-21T11:33:30.726Z,6.60
2023-03-21T11:36:08.392Z,5.75
2023-03-21T11:38:41.326Z,17.37
2023-03-21T11:41:11.752Z,5.80
2023-03-21T11:43:41.249Z,5.40
2023-03-21T11:46:12.729Z,5.87
2023-03-21T11:48:48.691Z,5.30
2023-03-21T11:51:44.864Z,5.70
2023-03-21T11:54:48.250Z,5.70
2023-03-21T11:57:29.755Z,5.70
2023-03-21T12:00:05.780Z,4.87
2023-03-21T12:02:57.902Z,5.00
2023-03-21T12:05:29.914Z,4.78
2023-03-21T12:08:07.095Z,5.17
2023-03-21T12:10:42.066Z,5.70
2023-03-21T12:13:46.506Z,5.20
2023-03-21T12:17:03.821Z,5.60
2023-03-21T12:23:43.853Z,5.03
2023-03-21T12:26:33.308Z,7.25
2023-03-21T12:29:33.079Z,5.03
2023-03-21T12:32:39.762Z,4.60
2023-03-21T12:35:23.423Z,4.85
2023-03-21T12:41:38.469Z,4.33
2023-03-21T12:44:16.045Z,5.03
2023-03-21T12:47:26.846Z,4.62
2023-03-21T12:50:29.323Z,5.03
2023-03-21T12:56:24.158Z,5.58
2023-03-21T12:59:28.008Z,4.67
2023-03-21T13:06:12.523Z,4.60
2023-03-21T13:08:47.102Z,4.45
2023-03-21T13:11:25.156Z,5.10
2023-03-21T13:14:10.607Z,4.80
2023-03-21T13:16:51.237Z,4.25
2023-03-21T13:19:35.215Z,5.08
2023-03-21T13:22:11.289Z,4.60
2023-03-21T13:28:03.861Z,4.20
2023-03-21T13:30:44.868Z,4.62
2023-03-21T13:33:27.018Z,4.85
2023-03-21T13:36:06.450Z,7.42
2023-03-21T13:38:43.307Z,14.40
2023-03-21T13:41:24.989Z,4.80
2023-03-21T13:44:05.001Z,5.47
2023-03-21T13:46:52.446Z,14.55
2023-03-21T13:49:12.647Z,5.20
2023-03-21T13:51:52.802Z,23.83
2023-03-21T13:54:34.362Z,45.15
2023-03-21T13:57:09.656Z,5.33
2023-03-21T13:59:43.500Z,13.08
2023-03-21T14:02:31.437Z,7.53
2023-03-21T14:05:07.029Z,4.53
2023-03-21T14:07:39.013Z,5.30
2023-03-21T14:10:38.601Z,9.23
2023-03-21T14:13:11.058Z,11.90
2023-03-21T14:15:53.094Z,6.08
2023-03-21T14:18:35.375Z,7.22
2023-03-21T14:20:57.562Z,6.25
2023-03-21T14:23:26.775Z,4.80
2023-03-21T14:25:56.152Z,6.10
2023-03-21T14:28:28.162Z,8.68
2023-03-21T14:31:00.406Z,5.95
2023-03-21T14:33:32.386Z,4.47
2023-03-21T14:36:08.554Z,5.90
2023-03-21T14:38:40.410Z,5.05
2023-03-21T14:41:20.975Z,4.42
2023-03-21T14:44:04.554Z,4.95
2023-03-21T14:46:34.294Z,4.28
2023-03-21T14:49:27.603Z,4.97
2023-03-21T14:51:59.342Z,5.62
2023-03-21T14:54:29.522Z,5.00
2023-03-21T14:57:03.517Z,5.10
2023-03-21T14:59:35.177Z,4.47
2023-03-21T15:02:08.417Z,5.17
2023-03-21T15:04:37.300Z,6.35
2023-03-21T15:07:07.590Z,5.30
2023-03-21T15:09:36.622Z,5.35
2023-03-21T15:12:08.714Z,5.83
2023-03-21T15:14:40.649Z,5.78
2023-03-21T15:17:11.303Z,5.87
2023-03-21T15:19:42.420Z,6.10
2023-03-21T15:22:29.086Z,5.67
2023-03-21T15:25:00.909Z,5.78
2023-03-21T15:27:32.645Z,5.35
2023-03-21T15:30:03.398Z,5.42
2023-03-21T15:32:33.818Z,6.40
2023-03-21T15:35:08.189Z,6.85
2023-03-21T15:37:40.121Z,8.08
2023-03-21T15:40:12.034Z,8.10
2023-03-21T15:42:44.700Z,6.95
2023-03-21T15:45:29.332Z,7.22
2023-03-21T15:48:08.147Z,5.92
2023-03-21T15:50:40.482Z,5.78
2023-03-21T15:53:15.054Z,5.53
2023-03-21T15:55:50.175Z,8.08
2023-03-21T15:58:22.207Z,7.22
2023-03-21T16:00:55.404Z,6.75
2023-03-21T16:03:30.596Z,7.15
2023-03-21T16:06:11.355Z,7.80
2023-03-21T16:08:52.132Z,7.42
2023-03-21T16:11:29.024Z,7.95
2023-03-21T16:13:57.939Z,8.05
2023-03-21T16:16:31.320Z,8.60
2023-03-21T16:19:02.133Z,8.70
2023-03-21T16:21:34.170Z,8.88
2023-03-21T16:24:03.239Z,8.38
2023-03-21T16:26:35.073Z,8.35
2023-03-21T16:29:12.139Z,7.83
2023-03-21T16:31:44.295Z,8.65
2023-03-21T16:34:13.371Z,8.38
2023-03-21T16:36:44.150Z,8.58
2023-03-21T16:39:22.050Z,10.15
2023-03-21T16:41:51.712Z,9.78
2023-03-21T16:44:21.202Z,8.75
2023-03-21T16:46:50.182Z,9.33
2023-03-21T16:49:27.611Z,9.25
2023-03-21T16:51:59.148Z,8.58
2023-03-21T16:54:28.340Z,9.43
2023-03-21T16:57:04.853Z,10.43
2023-03-21T16:59:33.657Z,9.93
2023-03-21T17:02:13.798Z,10.03
2023-03-21T17:05:23.162Z,9.13
2023-03-21T17:14:39.267Z,8.43
2023-03-21T17:17:24.663Z,9.00
2023-03-21T17:26:50.036Z,10.73
2023-03-21T17:29:30.609Z,9.35
2023-03-21T17:32:25.411Z,10.38
2023-03-21T17:35:06.656Z,10.72
2023-03-21T17:37:39.803Z,9.73
2023-03-21T17:40:36.822Z,10.35
2023-03-21T17:43:27.916Z,9.90
2023-03-21T17:46:18.187Z,10.15
2023-03-21T17:49:02.364Z,11.43
2023-03-21T17:58:02.328Z,14.18
2023-03-21T18:00:45.366Z,14.10
2023-03-21T18:03:35.692Z,14.28
2023-03-21T18:06:24.772Z,28.65
2023-03-21T18:09:01.838Z,22.85
2023-03-21T18:11:33.173Z,29.77
2023-03-21T18:14:15.411Z,19.98
2023-03-21T18:16:33.885Z,22.87
2023-03-21T18:19:11.043Z,23.83
2023-03-21T18:21:45.252Z,23.40
2023-03-21T18:24:15.477Z,26.17
2023-03-21T18:26:52.874Z,22.25
2023-03-21T18:32:09.129Z,17.30
2023-03-21T18:35:11.408Z,16.55
2023-03-21T18:40:51.980Z,17.37
2023-03-21T18:52:03.682Z,14.65
2023-03-21T18:54:51.189Z,15.07
2023-03-21T18:57:45.525Z,40.12
2023-03-21T19:04:29.486Z,14.18
2023-03-21T19:10:10.699Z,14.55
2023-03-21T19:12:21.986Z,15.50
2023-03-21T19:15:08.369Z,15.28
2023-03-21T19:20:44.410Z,14.20
2023-03-21T19:23:23.261Z,14.60
2023-03-21T19:25:54.442Z,17.00
2023-03-21T19:28:25.116Z,21.12
2023-03-21T19:30:56.190Z,17.10
2023-03-21T19:33:38.496Z,17.60
2023-03-21T19:36:21.833Z,17.70
2023-03-21T19:38:49.221Z,18.67
2023-03-21T19:41:18.402Z,19.13
2023-03-21T19:43:54.559Z,18.83
2023-03-21T19:46:22.286Z,19.43
2023-03-21T19:48:51.343Z,18.97
2023-03-21T19:51:28.255Z,19.02
2023-03-21T19:53:51.203Z,19.57
2023-03-21T19:56:23.750Z,20.45
2023-03-21T19:59:46.509Z,21.42
2023-03-21T20:02:34.675Z,21.10
2023-03-21T20:04:48.990Z,20.50
2023-03-21T20:07:35.025Z,21.62
2023-03-21T20:10:03.802Z,20.53
2023-03-21T20:12:35.638Z,20.83
2023-03-21T20:15:16.716Z,20.57
2023-03-21T20:17:35.297Z,21.82
2023-03-21T20:20:05.627Z,22.15
2023-03-21T20:23:03.155Z,18.10
2023-03-21T20:25:06.804Z,18.98
2023-03-21T20:27:39.191Z,20.27
2023-03-21T20:30:11.023Z,18.77
2023-03-21T20:32:42.321Z,19.25
2023-03-21T20:35:21.281Z,18.73
2023-03-21T20:37:50.027Z,20.00
2023-03-21T20:40:21.820Z,18.73
2023-03-21T20:42:56.739Z,18.37
2023-03-21T20:45:25.389Z,17.25
2023-03-21T20:47:54.371Z,17.57
2023-03-21T20:50:23.277Z,17.17
2023-03-21T20:53:06.040Z,17.75
2023-03-21T20:55:23.406Z,17.50
2023-03-21T20:57:55.352Z,17.80
2023-03-21T21:00:26.819Z,17.30
2023-03-21T21:03:00.915Z,17.30
2023-03-21T21:05:34.754Z,16.30
2023-03-21T21:08:04.189Z,30.62
2023-03-21T21:10:33.694Z,17.90
2023-03-21T21:13:05.520Z,17.23
2023-03-21T21:15:34.914Z,18.85
2023-03-21T21:18:10.525Z,17.03
2023-03-21T21:20:41.476Z,17.00
2023-03-21T21:23:13.756Z,15.70
2023-03-21T21:25:42.731Z,15.87
2023-03-21T21:28:12.020Z,16.12
2023-03-21T21:30:42.665Z,16.50
2023-03-21T21:33:13.308Z,16.40
2023-03-21T21:38:43.564Z,17.00
2023-03-21T21:41:17.248Z,13.68
2023-03-21T21:43:53.321Z,15.15
2023-03-21T21:50:04.340Z,15.72
2023-03-21T21:52:39.451Z,15.70
2023-03-21T21:55:08.584Z,14.87
2023-03-21T21:57:46.130Z,16.77
2023-03-21T22:00:19.610Z,20.60
2023-03-21T22:03:13.941Z,12.10
2023-03-21T22:09:59.430Z,9.50
2023-03-21T22:12:25.831Z,9.18
2023-03-21T22:14:59.982Z,7.43
2023-03-21T22:17:33.683Z,5.60
2023-03-21T22:20:10.763Z,2.97
2023-03-21T22:22:52.578Z,3.40
2023-03-21T22:25:24.601Z,3.40
2023-03-21T22:27:58.613Z,3.43
2023-03-21T22:30:32.429Z,3.33
2023-03-21T22:33:09.392Z,3.00
2023-03-21T22:35:33.842Z,3.43
2023-03-21T22:38:09.850Z,3.47
2023-03-21T22:40:41.829Z,2.80
2023-03-21T22:43:11.191Z,3.60
2023-03-21T22:45:39.906Z,4.23
2023-03-21T22:48:08.593Z,4.17
2023-03-21T22:50:45.791Z,3.60
2023-03-21T22:53:16.152Z,3.80
2023-03-21T22:55:44.760Z,3.83
2023-03-21T22:58:13.555Z,3.97
2023-03-21T23:00:42.266Z,3.80
2023-03-21T23:03:11.334Z,3.83
2023-03-21T23:05:43.633Z,3.95
2023-03-21T23:08:12.870Z,3.97
2023-03-21T23:10:44.062Z,3.93
2023-03-21T23:13:13.071Z,4.15
2023-03-21T23:15:41.992Z,3.73
2023-03-21T23:18:10.585Z,3.90
2023-03-21T23:20:39.623Z,4.22
2023-03-21T23:23:08.532Z,4.22
2023-03-21T23:25:40.185Z,4.40
2023-03-21T23:28:08.413Z,4.73
2023-03-21T23:30:40.228Z,4.43
2023-03-21T23:33:09.216Z,5.33
2023-03-21T23:35:38.561Z,5.20
2023-03-21T23:38:07.324Z,5.93
2023-03-21T23:40:35.845Z,5.50
2023-03-21T23:43:04.561Z,5.60
2023-03-21T23:45:33.274Z,4.97
2023-03-21T23:48:02.070Z,5.37
2023-03-21T23:50:30.814Z,5.33
2023-03-21T23:52:59.417Z,4.57
2023-03-21T23:55:28.417Z,5.20
2023-03-21T23:57:58.663Z,5.00
